createdAt,value
2018-08-22T00:02:34.493Z,101180.86
2018-08-22T00:10:55.618Z,101178.37
2018-08-22T00:19:17.671Z,101178.08
2018-08-22T00:27:38.667Z,101180.53
2018-08-22T00:35:59.698Z,101175.81
2018-08-22T00:44:21.058Z,101171.64
2018-08-22T00:52:42.189Z,101167.17
2018-08-22T01:01:04.248Z,101169.41
2018-08-22T01:09:25.272Z,101164.97
2018-08-22T01:17:46.289Z,101159.63
2018-08-22T01:26:07.391Z,101160.05
2018-08-22T01:34:28.713Z,101150.45
2018-08-22T01:42:49.751Z,101146.39
2018-08-22T01:51:10.757Z,101142.88
2018-08-22T01:59:32.886Z,101143.50
2018-08-22T02:07:53.910Z,101147.05
2018-08-22T02:16:14.947Z,101147.32
2018-08-22T02:24:35.960Z,101152.56
2018-08-22T02:32:58.119Z,101146.80
2018-08-22T02:41:19.249Z,101141.88
2018-08-22T02:49:42.340Z,101135.94
2018-08-22T02:58:03.741Z,101133.59
2018-08-22T03:06:24.854Z,101128.97
2018-08-22T03:14:48.954Z,101133.97
2018-08-22T03:23:10.078Z,101127.52
2018-08-22T03:31:31.137Z,101125.73
2018-08-22T03:47:15.297Z,101109.98
2018-08-22T03:55:36.404Z,101108.41
2018-08-22T04:03:57.462Z,101108.04
2018-08-22T04:12:18.495Z,101108.20
2018-08-22T04:20:39.566Z,101116.14
2018-08-22T04:29:01.628Z,101117.92
2018-08-22T04:37:22.702Z,101112.57
2018-08-22T04:45:43.711Z,101113.56
2018-08-22T04:54:04.747Z,101104.09
2018-08-22T05:02:25.796Z,101112.94
2018-08-22T05:10:46.823Z,101112.05
2018-08-22T05:19:07.824Z,101113.06
2018-08-22T05:31:55.399Z,101109.91
2018-08-22T05:40:16.423Z,101115.88
2018-08-22T05:48:38.487Z,101111.28
2018-08-22T06:07:56.756Z,101105.49
2018-08-22T06:16:17.806Z,101100.91
2018-08-22T06:24:38.845Z,101103.09
2018-08-22T06:33:00.165Z,101110.82
2018-08-22T06:41:21.176Z,101106.82
2018-08-22T06:49:44.231Z,101103.02
2018-08-22T06:58:05.273Z,101099.55
2018-08-22T07:06:26.304Z,101090.47
2018-08-22T07:14:47.649Z,101087.44
2018-08-22T07:23:08.688Z,101079.12
2018-08-22T07:31:34.371Z,101085.50
2018-08-22T07:39:56.436Z,101083.65
2018-08-22T07:48:17.563Z,101093.03
2018-08-22T07:56:38.940Z,101081.95
2018-08-22T08:04:59.963Z,101073.75
2018-08-22T08:13:24.204Z,101072.45
2018-08-22T08:21:45.230Z,101071.53
2018-08-22T08:30:06.277Z,101077.04
2018-08-22T08:38:27.304Z,101061.16
2018-08-22T08:46:48.662Z,101064.45
2018-08-22T08:55:09.680Z,101060.42
2018-08-22T09:03:30.742Z,101039.83
2018-08-22T09:11:51.788Z,101040.86
2018-08-22T09:20:16.247Z,101033.98
2018-08-22T09:45:29.934Z,101013.23
2018-08-22T09:53:50.955Z,101007.17
2018-08-22T10:03:42.825Z,100996.39
2018-08-22T10:20:34.818Z,100980.41
2018-08-22T10:28:55.859Z,100987.02
2018-08-22T10:37:17.201Z,100974.97
2018-08-22T10:45:38.219Z,100976.42
2018-08-22T10:53:59.263Z,100968.28
2018-08-22T11:19:13.470Z,100947.07
2018-08-22T11:27:34.481Z,100938.47
2018-08-22T11:35:55.516Z,100933.60
2018-08-22T11:44:16.547Z,100933.50
2018-08-22T12:01:04.280Z,100926.48
2018-08-22T12:09:25.328Z,100928.09
2018-08-22T12:17:46.376Z,100914.06
2018-08-22T12:43:01.648Z,100902.01
2018-08-22T15:31:01.486Z,100809.55
2018-08-22T17:29:07.739Z,100763.53
2018-08-22T17:37:28.760Z,100767.34
2018-08-22T17:45:49.819Z,100753.06
2018-08-22T17:54:10.848Z,100763.64
2018-08-22T18:02:31.882Z,100771.55
2018-08-22T18:10:52.931Z,100782.16
2018-08-22T18:19:14.008Z,100787.70
2018-08-22T18:27:35.024Z,100793.16
2018-08-22T18:35:56.163Z,100796.26
2018-08-22T18:44:17.443Z,100812.30
2018-08-22T18:52:44.484Z,100818.97
2018-08-22T19:01:05.547Z,100833.39
2018-08-22T19:09:26.595Z,100835.14
2018-08-22T19:17:48.646Z,100845.86
2018-08-22T19:26:13.699Z,100853.87
2018-08-22T19:34:34.708Z,100857.91
2018-08-22T19:42:55.745Z,100862.39
2018-08-22T19:59:47.629Z,100870.73
2018-08-22T20:16:35.027Z,100872.95
2018-08-22T20:24:56.049Z,100875.11
2018-08-22T20:35:22.458Z,100878.99
2018-08-22T20:43:43.528Z,100881.16
2018-08-22T20:52:04.926Z,100888.06
2018-08-22T21:00:28.047Z,100894.47
2018-08-22T21:08:50.137Z,100897.05
2018-08-22T21:17:11.268Z,100893.09
2018-08-22T21:25:32.288Z,100898.70
2018-08-22T21:33:53.357Z,100902.56
2018-08-22T21:42:14.491Z,100904.23
2018-08-22T21:50:35.540Z,100917.18
2018-08-22T21:58:56.560Z,100913.27
2018-08-22T22:07:17.863Z,100912.70
2018-08-22T22:15:42.840Z,100904.78
2018-08-22T22:24:03.993Z,100904.74
2018-08-22T22:32:25.035Z,100910.73
2018-08-22T22:40:46.084Z,100901.16
2018-08-22T22:49:08.184Z,100907.23
2018-08-22T22:57:29.327Z,100911.86
2018-08-22T23:05:50.356Z,100900.77
2018-08-22T23:14:11.495Z,100902.89
2018-08-22T23:22:33.591Z,100899.23
2018-08-22T23:30:55.655Z,100899.82
2018-08-22T23:39:16.697Z,100897.09
2018-08-22T23:47:37.700Z,100896.98
2018-08-22T23:55:58.712Z,100895.59
